Time;durP1;ratioP1;P1;durP2;ratioP2;P2;SDS_P1;SDS_P2;PMS_P1;PMS_P2;Temp;Humidity;BMP_temperature;BMP_pressure;BME280_temperature;BME280_humidity;BME280_pressure;Samples;Min_cycle;Max_cycle;Signal;HPM_P1;HPM_P2
2022/11/07 00:01:19;;;;;;;7.30;4.43;;;;;;;6.79;100.00;96161.06;5017125;28;20373;-74
2022/11/07 00:03:44;;;;;;;9.20;4.23;;;;;;;6.80;100.00;96162.69;5022008;28;20036;-74
2022/11/07 00:06:10;;;;;;;5.03;2.70;;;;;;;7.04;100.00;96172.72;5007616;28;20033;-73
2022/11/07 00:08:36;;;;;;;4.17;1.97;;;;;;;7.22;100.00;96171.06;5019701;28;20420;-73
2022/11/07 00:11:04;;;;;;;2.37;1.30;;;;;;;7.36;100.00;96158.53;5015665;28;20034;-74
2022/11/07 00:13:30;;;;;;;2.80;1.50;;;;;;;7.37;100.00;96160.16;5029366;28;20097;-73
2022/11/07 00:16:00;;;;;;;3.37;1.50;;;;;;;7.32;100.00;96160.59;5032953;28;20381;-74
2022/11/07 00:18:26;;;;;;;5.70;1.80;;;;;;;7.37;100.00;96170.63;5028797;28;20144;-74
2022/11/07 00:20:51;;;;;;;3.40;1.67;;;;;;;7.35;100.00;96170.78;5016815;28;20112;-73
2022/11/07 00:23:17;;;;;;;4.50;1.90;;;;;;;7.30;100.00;96171.19;5018950;28;20030;-73
2022/11/07 00:25:43;;;;;;;3.37;1.60;;;;;;;7.30;100.00;96176.41;5017888;28;20026;-73
2022/11/07 00:28:08;;;;;;;3.37;1.60;;;;;;;7.37;100.00;96178.47;5034215;28;20042;-74
2022/11/07 00:30:34;;;;;;;4.83;2.00;;;;;;;7.35;100.00;96175.19;5015835;28;20040;-73
2022/11/07 00:33:00;;;;;;;4.17;1.87;;;;;;;7.34;100.00;96187.41;5017090;28;20030;-73
2022/11/07 00:35:26;;;;;;;4.30;2.07;;;;;;;7.36;100.00;96195.16;5019176;28;20018;-74
2022/11/07 00:37:54;;;;;;;6.17;2.20;;;;;;;7.39;100.00;96189.63;5034520;28;20032;-73
2022/11/07 00:40:19;;;;;;;4.60;1.73;;;;;;;7.43;100.00;96191.00;5018221;28;20531;-73
2022/11/07 00:42:46;;;;;;;4.33;1.90;;;;;;;7.42;100.00;96205.06;5014931;28;20159;-73
2022/11/07 00:45:12;;;;;;;4.00;2.10;;;;;;;7.48;100.00;96200.09;5015954;28;20075;-73
2022/11/07 00:47:38;;;;;;;3.90;1.90;;;;;;;7.42;100.00;96202.44;5018762;28;20065;-73
2022/11/07 00:50:05;;;;;;;4.60;2.17;;;;;;;7.45;100.00;96199.53;5016297;28;20032;-74
2022/11/07 00:52:30;;;;;;;2.83;1.63;;;;;;;7.51;100.00;96206.81;5013402;28;20033;-73
2022/11/07 00:54:56;;;;;;;4.50;2.13;;;;;;;7.54;100.00;96203.91;5014941;28;20026;-73
2022/11/07 00:57:22;;;;;;;5.40;1.90;;;;;;;7.52;100.00;96205.84;5012661;28;20084;-73
2022/11/07 00:59:48;;;;;;;4.07;2.30;;;;;;;7.61;100.00;96205.00;5015626;28;20037;-73
2022/11/07 01:02:13;;;;;;;4.67;2.33;;;;;;;7.57;100.00;96214.09;5013822;28;20087;-74
2022/11/07 01:07:23;;;;;;;5.30;2.10;;;;;;;7.63;100.00;96210.91;5018813;28;20037;-73
2022/11/07 01:09:49;;;;;;;5.00;1.87;;;;;;;7.68;100.00;96206.09;5015086;28;20129;-74
2022/11/07 01:12:15;;;;;;;5.43;1.90;;;;;;;7.71;100.00;96210.19;5016942;28;20041;-73
2022/11/07 01:14:40;;;;;;;3.40;1.67;;;;;;;7.79;100.00;96210.34;5014620;28;20441;-73
2022/11/07 01:17:06;;;;;;;4.10;1.73;;;;;;;7.84;100.00;96209.91;5016793;28;20029;-73
2022/11/07 01:19:32;;;;;;;6.33;2.27;;;;;;;7.85;100.00;96201.09;5011790;28;20120;-73
2022/11/07 01:21:57;;;;;;;2.20;1.23;;;;;;;7.86;100.00;96202.72;5015635;28;20042;-73
2022/11/07 01:24:23;;;;;;;4.03;1.93;;;;;;;7.86;100.00;96202.72;5031114;28;20038;-73
2022/11/07 01:26:50;;;;;;;2.53;1.10;;;;;;;7.87;100.00;96207.00;5015912;28;20045;-73
2022/11/07 01:29:18;;;;;;;2.80;1.33;;;;;;;7.94;100.00;96205.44;5016235;28;20061;-73
2022/11/07 01:31:44;;;;;;;3.37;1.60;;;;;;;8.03;100.00;96204.59;5019537;28;20083;-73
2022/11/07 01:34:09;;;;;;;4.77;1.37;;;;;;;8.04;100.00;96201.81;5017278;28;20030;-73
2022/11/07 01:36:35;;;;;;;1.93;1.00;;;;;;;8.07;100.00;96195.47;5020196;28;20037;-73
2022/11/07 01:39:02;;;;;;;1.60;0.90;;;;;;;8.04;100.00;96196.56;5019323;28;20033;-73
2022/11/07 01:41:32;;;;;;;2.67;1.30;;;;;;;8.16;100.00;96194.63;5014799;28;20033;-73
2022/11/07 01:44:02;;;;;;;2.97;1.00;;;;;;;8.16;100.00;96199.03;5021443;28;20119;-73
2022/11/07 01:46:31;;;;;;;3.80;1.60;;;;;;;8.13;100.00;96189.66;5013761;28;20517;-73
2022/11/07 01:49:02;;;;;;;3.17;1.10;;;;;;;8.17;100.00;96185.78;5017656;28;20041;-73
2022/11/07 01:51:32;;;;;;;3.73;1.20;;;;;;;8.15;100.00;96189.50;5019338;28;20033;-73
2022/11/07 01:53:59;;;;;;;2.87;1.00;;;;;;;8.15;100.00;96184.25;5016280;28;20096;-73
2022/11/07 01:56:30;;;;;;;4.33;1.30;;;;;;;8.22;100.00;96188.78;5015771;28;20104;-72
2022/11/07 01:58:58;;;;;;;2.83;1.23;;;;;;;8.28;100.00;96192.59;5011496;28;20034;-73
2022/11/07 02:01:24;;;;;;;3.23;1.30;;;;;;;8.22;100.00;96188.78;5016753;28;21337;-73
2022/11/07 02:03:51;;;;;;;3.70;1.23;;;;;;;8.23;100.00;96198.28;5018763;28;20037;-73
2022/11/07 02:07:09;;;;;;;2.53;1.10;;;;;;;8.27;100.00;96188.34;5018861;28;21350;-73
2022/11/07 02:09:35;;;;;;;2.23;1.13;;;;;;;8.29;100.00;96198.69;4972269;28;20107;-73
2022/11/07 02:12:01;;;;;;;2.27;1.20;;;;;;;8.27;100.00;96194.41;5015377;28;20850;-73
2022/11/07 02:14:28;;;;;;;2.03;0.80;;;;;;;8.20;100.00;96190.72;5015239;28;20038;-73
2022/11/07 02:16:54;;;;;;;4.17;1.20;;;;;;;8.13;100.00;96197.53;5027833;28;20064;-73
2022/11/07 02:19:25;;;;;;;4.43;1.37;;;;;;;8.04;100.00;96198.38;5013822;28;20037;-73
2022/11/07 02:22:03;;;;;;;4.07;1.20;;;;;;;7.94;100.00;96195.78;5028334;28;20499;-73
2022/11/07 02:24:32;;;;;;;2.47;0.90;;;;;;;7.94;100.00;96206.28;5019885;28;20025;-72
2022/11/07 02:27:00;;;;;;;1.97;1.00;;;;;;;7.83;100.00;96195.16;5015419;28;20037;-73
2022/11/07 02:29:26;;;;;;;2.90;1.00;;;;;;;7.78;100.00;96204.28;5016098;28;20049;-73
2022/11/07 02:32:06;;;;;;;2.03;1.07;;;;;;;7.65;100.00;96206.38;5014309;28;20021;-73
2022/11/07 02:34:32;;;;;;;2.47;1.00;;;;;;;7.59;100.00;96203.50;5016093;28;20116;-73
2022/11/07 02:37:00;;;;;;;2.63;1.13;;;;;;;7.51;100.00;96199.81;5021351;28;21009;-73
2022/11/07 02:39:26;;;;;;;4.33;1.10;;;;;;;7.54;100.00;96202.16;5016160;28;20034;-73
2022/11/07 02:41:53;;;;;;;3.37;1.13;;;;;;;7.49;100.00;96209.56;5019047;28;20033;-73
2022/11/07 02:44:19;;;;;;;2.10;0.93;;;;;;;7.41;100.00;96204.22;5018853;28;20065;-73
2022/11/07 02:46:45;;;;;;;2.63;1.10;;;;;;;7.38;100.00;96214.13;5013891;28;20033;-73
2022/11/07 02:49:11;;;;;;;3.13;1.10;;;;;;;7.35;100.00;96204.78;5032995;28;20092;-73
2022/11/07 02:51:37;;;;;;;1.80;1.00;;;;;;;7.41;100.00;96208.63;5019888;28;20110;-73
2022/11/07 02:54:03;;;;;;;2.33;1.00;;;;;;;7.39;100.00;96208.75;5015973;28;20045;-73
2022/11/07 02:56:28;;;;;;;3.13;0.90;;;;;;;7.42;100.00;96218.13;5027327;28;20030;-73
2022/11/07 02:58:54;;;;;;;2.60;1.10;;;;;;;7.49;100.00;96211.38;5014456;28;20037;-73
2022/11/07 03:01:21;;;;;;;4.33;1.20;;;;;;;7.46;100.00;96212.47;5024202;28;20061;-73
2022/11/07 03:03:49;;;;;;;3.47;1.00;;;;;;;7.45;100.00;96204.78;5024608;28;20037;-73
2022/11/07 03:06:20;;;;;;;1.27;0.73;;;;;;;7.53;100.00;96197.84;5003324;28;20034;-72
2022/11/07 03:08:46;;;;;;;2.30;1.10;;;;;;;7.54;100.00;96193.44;5020864;28;20057;-73
2022/11/07 03:11:12;;;;;;;2.37;1.27;;;;;;;7.51;100.00;96194.56;5021085;28;20122;-73
2022/11/07 03:13:38;;;;;;;1.93;1.07;;;;;;;7.54;100.00;96196.91;5013484;28;20069;-73
2022/11/07 03:16:09;;;;;;;1.93;0.90;;;;;;;7.56;100.00;96194.13;5016165;28;20037;-73
2022/11/07 03:18:36;;;;;;;3.73;1.30;;;;;;;7.54;100.00;96198.69;5025148;28;20493;-72
2022/11/07 03:21:03;;;;;;;2.93;1.00;;;;;;;7.55;100.00;96190.69;5022400;28;20037;-73
2022/11/07 03:23:29;;;;;;;3.00;1.23;;;;;;;7.54;100.00;96185.59;5023524;28;20040;-73
2022/11/07 03:25:55;;;;;;;3.20;1.20;;;;;;;7.52;100.00;96195.41;5025333;28;20053;-73
2022/11/07 03:28:20;;;;;;;2.43;1.07;;;;;;;7.52;100.00;96192.78;5033397;28;20037;-73
2022/11/07 03:30:46;;;;;;;2.30;1.00;;;;;;;7.45;100.00;96202.16;5022443;28;20056;-73
2022/11/07 03:33:12;;;;;;;1.80;1.13;;;;;;;7.42;100.00;96212.91;5010159;28;20060;-73
2022/11/07 03:35:37;;;;;;;1.93;1.10;;;;;;;7.45;100.00;96212.63;5040494;28;21332;-73
2022/11/07 03:38:03;;;;;;;2.63;1.30;;;;;;;7.47;100.00;96218.53;5020368;28;20451;-73
2022/11/07 03:40:29;;;;;;;4.07;1.40;;;;;;;7.43;100.00;96227.63;5022909;28;20601;-73
2022/11/07 03:42:54;;;;;;;3.03;1.30;;;;;;;7.39;100.00;96227.09;5021029;28;20033;-73
2022/11/07 03:45:20;;;;;;;3.03;1.17;;;;;;;7.42;100.00;96225.97;5019944;28;20179;-73
2022/11/07 03:47:46;;;;;;;2.40;1.13;;;;;;;7.41;100.00;96229.53;5034035;28;20037;-73
2022/11/07 03:50:15;;;;;;;4.77;1.80;;;;;;;7.43;100.00;96233.69;5016756;28;20075;-73
2022/11/07 03:52:41;;;;;;;3.77;1.23;;;;;;;7.54;100.00;96224.84;5023665;28;20037;-73
2022/11/07 03:55:08;;;;;;;1.63;1.10;;;;;;;7.63;100.00;96229.25;5038296;28;20418;-73
2022/11/07 03:57:34;;;;;;;6.33;1.23;;;;;;;7.60;100.00;96234.75;5022528;28;20032;-75
2022/11/07 03:59:59;;;;;;;2.93;1.00;;;;;;;7.59;100.00;96237.53;5020124;28;20037;-73
2022/11/07 04:02:25;;;;;;;3.43;1.17;;;;;;;7.60;100.00;96241.78;5021568;28;20040;-73
2022/11/07 04:04:51;;;;;;;4.57;1.50;;;;;;;7.59;100.00;96237.53;5020147;28;20411;-73
2022/11/07 04:07:17;;;;;;;2.27;1.27;;;;;;;7.64;100.00;96237.91;5020171;28;20030;-73
2022/11/07 04:09:42;;;;;;;4.10;1.40;;;;;;;7.60;100.00;96237.38;5018339;28;20022;-73
2022/11/07 04:17:37;;;;;;;2.00;1.20;;;;;;;7.70;100.00;96232.94;5019511;28;20407;-73
2022/11/07 04:20:04;;;;;;;2.03;1.10;;;;;;;7.76;100.00;96239.41;5019246;28;20038;-73
2022/11/07 04:22:30;;;;;;;5.33;1.20;;;;;;;7.76;100.00;96248.09;5019648;28;20030;-73
2022/11/07 04:24:55;;;;;;;2.53;1.20;;;;;;;7.82;100.00;96249.31;5018259;28;20036;-73
2022/11/07 04:30:18;;;;;;;4.33;1.50;;;;;;;7.85;100.00;96242.97;5015270;28;20040;-73
2022/11/07 04:32:48;;;;;;;2.20;1.13;;;;;;;7.93;100.00;96249.16;5020029;28;20487;-73
2022/11/07 04:35:15;;;;;;;4.87;1.60;;;;;;;7.90;100.00;96251.22;5017378;28;20061;-72
2022/11/07 04:37:41;;;;;;;2.53;1.20;;;;;;;7.92;100.00;96254.53;5017428;28;20029;-72
2022/11/07 04:40:08;;;;;;;2.77;1.27;;;;;;;7.92;100.00;96254.53;5020393;28;20727;-72
2022/11/07 04:42:34;;;;;;;2.70;1.30;;;;;;;7.99;100.00;96260.84;5019029;28;20451;-73
2022/11/07 04:45:00;;;;;;;2.03;1.23;;;;;;;8.00;100.00;96258.06;5018405;28;20026;-72
2022/11/07 04:47:26;;;;;;;5.87;1.30;;;;;;;7.97;100.00;96252.31;5015982;28;20041;-73
2022/11/07 04:49:51;;;;;;;3.37;1.73;;;;;;;7.95;100.00;96254.25;5014358;28;20034;-73
2022/11/07 04:52:17;;;;;;;2.60;1.30;;;;;;;7.95;100.00;96249.03;5015221;28;20040;-73
2022/11/07 04:54:45;;;;;;;1.90;1.13;;;;;;;8.02;100.00;96250.09;5033067;28;20034;-73
2022/11/07 04:57:11;;;;;;;4.27;1.70;;;;;;;7.98;100.00;96249.56;5033736;28;20548;-73
2022/11/07 04:59:36;;;;;;;2.60;1.40;;;;;;;7.96;100.00;96250.66;5015806;28;20049;-73
2022/11/07 05:02:02;;;;;;;5.23;2.13;;;;;;;7.92;100.00;96250.13;5018715;28;20037;-73
2022/11/07 05:04:28;;;;;;;3.07;1.53;;;;;;;7.98;100.00;96257.41;5018396;28;20083;-73
2022/11/07 05:06:54;;;;;;;5.43;1.63;;;;;;;7.95;100.00;96249.03;5020019;28;21423;-73
2022/11/07 05:09:19;;;;;;;3.60;1.20;;;;;;;7.93;100.00;96250.94;5020263;28;20483;-73
2022/11/07 05:11:46;;;;;;;4.77;1.87;;;;;;;7.93;100.00;96248.31;5016860;28;20042;-73
2022/11/07 05:14:13;;;;;;;3.83;1.10;;;;;;;7.98;100.00;96257.41;5013375;28;20052;-74
2022/11/07 05:16:41;;;;;;;4.20;1.50;;;;;;;8.01;100.00;96253.66;5033726;28;20049;-73
2022/11/07 05:19:13;;;;;;;4.27;1.13;;;;;;;7.95;100.00;96255.06;5015807;28;20460;-73
2022/11/07 05:21:39;;;;;;;6.05;1.25;;;;;;;7.87;100.00;96257.56;5031083;28;20458;-73
2022/11/07 05:24:05;;;;;;;6.00;1.80;;;;;;;7.81;100.00;96263.34;5011403;28;20120;-73
2022/11/07 05:26:31;;;;;;;4.93;2.10;;;;;;;7.82;100.00;96261.59;5012788;28;20041;-74
2022/11/07 05:28:56;;;;;;;5.23;1.90;;;;;;;7.70;100.00;96258.28;5013440;28;20403;-73
2022/11/07 05:31:22;;;;;;;6.23;2.40;;;;;;;7.71;100.00;96259.94;5003299;28;20060;-73
2022/11/07 05:33:48;;;;;;;4.60;2.00;;;;;;;7.72;100.00;96264.22;4998235;28;20037;-73
2022/11/07 05:36:16;;;;;;;4.00;1.70;;;;;;;7.68;100.00;96273.31;5016062;28;20499;-73
2022/11/07 05:38:44;;;;;;;4.10;1.80;;;;;;;7.66;100.00;96270.84;5012096;28;20110;-73
2022/11/07 05:41:10;;;;;;;5.53;2.13;;;;;;;7.67;100.00;96276.91;5012755;28;20033;-73
2022/11/07 05:43:37;;;;;;;3.07;1.33;;;;;;;7.70;100.00;96274.81;5012331;28;20892;-73
2022/11/07 05:46:03;;;;;;;5.13;1.83;;;;;;;7.67;100.00;96275.09;5010773;28;20030;-73
2022/11/07 05:48:29;;;;;;;4.07;1.67;;;;;;;7.68;100.00;96273.31;5014684;28;20559;-73
2022/11/07 05:50:56;;;;;;;3.83;1.50;;;;;;;7.75;100.00;96274.41;5008295;28;20034;-73
2022/11/07 05:53:24;;;;;;;5.90;2.20;;;;;;;7.71;100.00;96265.16;5013064;28;20052;-74
2022/11/07 05:55:51;;;;;;;4.83;2.00;;;;;;;7.68;100.00;96274.16;5013638;28;20112;-73
2022/11/07 05:58:17;;;;;;;7.13;2.30;;;;;;;7.64;100.00;96267.53;5015633;28;20068;-73
2022/11/07 06:00:43;;;;;;;7.27;3.20;;;;;;;7.57;100.00;96269.06;5027593;28;20033;-73
2022/11/07 06:03:09;;;;;;;9.17;3.77;;;;;;;7.56;100.00;96280.50;5015052;28;20084;-73
2022/11/07 06:05:37;;;;;;;33.97;13.87;;;;;;;7.52;100.00;96279.13;5015925;28;20403;-73
2022/11/07 06:08:05;;;;;;;26.03;10.27;;;;;;;7.69;100.00;96270.56;5018653;28;20033;-74
2022/11/07 06:10:30;;;;;;;10.00;4.40;;;;;;;7.64;100.00;96275.38;5015035;28;20068;-73
2022/11/07 06:13:00;;;;;;;11.47;3.83;;;;;;;7.56;100.00;96280.50;5033385;28;20053;-74
2022/11/07 06:15:28;;;;;;;5.67;2.47;;;;;;;7.66;100.00;96272.63;5034177;28;20045;-73
2022/11/07 06:17:54;;;;;;;8.30;2.53;;;;;;;7.74;100.00;96268.34;5021299;28;20803;-73
2022/11/07 06:20:19;;;;;;;6.90;2.17;;;;;;;7.77;100.00;96278.53;5023225;28;20454;-73
2022/11/07 06:22:45;;;;;;;5.63;2.30;;;;;;;7.71;100.00;96284.34;5017847;28;20096;-73
2022/11/07 06:25:11;;;;;;;11.03;4.77;;;;;;;7.69;100.00;96282.81;5018812;28;20037;-73
2022/11/07 06:27:36;;;;;;;8.50;4.60;;;;;;;7.70;100.00;96285.28;5037412;28;20029;-73
2022/11/07 06:30:03;;;;;;;7.30;3.33;;;;;;;7.73;100.00;96285.00;5037390;28;20115;-73
2022/11/07 06:32:29;;;;;;;5.77;2.60;;;;;;;7.83;100.00;96292.03;5025933;28;20083;-73
2022/11/07 06:34:55;;;;;;;8.43;3.10;;;;;;;7.89;100.00;96294.09;5017485;28;20042;-74
2022/11/07 06:37:21;;;;;;;8.77;3.23;;;;;;;7.91;100.00;96295.59;5032667;28;20141;-74
2022/11/07 06:39:46;;;;;;;7.77;2.90;;;;;;;7.97;100.00;96294.19;5017575;28;20025;-73
2022/11/07 06:42:12;;;;;;;6.57;2.43;;;;;;;7.99;100.00;96297.50;5021067;28;20032;-74
2022/11/07 06:44:38;;;;;;;7.97;3.30;;;;;;;8.04;100.00;96305.75;5015517;28;20442;-74
2022/11/07 06:47:03;;;;;;;6.30;2.97;;;;;;;8.12;100.00;96298.03;5018175;28;21030;-74
2022/11/07 06:49:29;;;;;;;6.67;2.90;;;;;;;8.20;100.00;96305.16;5017172;28;20147;-74
2022/11/07 06:51:55;;;;;;;7.53;2.73;;;;;;;8.25;100.00;96298.53;5017746;28;20469;-74
2022/11/07 06:54:20;;;;;;;5.23;1.70;;;;;;;8.36;100.00;96305.41;5018780;28;20533;-74
2022/11/07 06:56:46;;;;;;;5.80;2.07;;;;;;;8.41;100.00;96304.97;5018406;28;20071;-74
2022/11/07 06:59:11;;;;;;;4.43;1.83;;;;;;;8.46;100.00;96315.88;5008292;28;20029;-75
2022/11/07 07:01:37;;;;;;;7.33;2.10;;;;;;;8.53;100.00;96306.47;5017123;28;20025;-74
2022/11/07 07:04:04;;;;;;;6.80;1.83;;;;;;;8.58;100.00;96314.69;5029972;28;20037;-74
2022/11/07 07:06:29;;;;;;;6.87;2.47;;;;;;;8.66;100.00;96311.38;5016958;28;21309;-74
2022/11/07 07:08:56;;;;;;;6.77;3.40;;;;;;;8.80;100.00;96318.75;5015282;28;20109;-74
2022/11/07 07:11:22;;;;;;;6.37;3.57;;;;;;;8.79;100.00;96317.09;5015153;28;20037;-75
2022/11/07 07:13:48;;;;;;;10.03;4.20;;;;;;;8.95;100.00;96319.91;5035241;28;20068;-75
2022/11/07 07:16:14;;;;;;;8.97;3.57;;;;;;;9.10;100.00;96308.91;5015612;28;20096;-75
2022/11/07 07:18:39;;;;;;;7.70;4.17;;;;;;;9.10;100.00;96309.75;5019647;28;20030;-75
2022/11/07 07:21:07;;;;;;;9.90;4.43;;;;;;;9.14;100.00;96318.97;5017013;28;20040;-75
2022/11/07 07:23:34;;;;;;;10.13;4.53;;;;;;;9.30;100.00;96315.69;5015445;28;20049;-75
2022/11/07 07:26:01;;;;;;;7.23;3.53;;;;;;;9.61;100.00;96318.75;5033048;28;20038;-75
2022/11/07 07:28:27;;;;;;;6.67;3.73;;;;;;;9.73;100.00;96319.34;5028944;28;20038;-75
2022/11/07 07:30:53;;;;;;;5.90;3.53;;;;;;;9.90;100.00;96322.94;5015689;28;20033;-75
2022/11/07 07:33:20;;;;;;;8.13;4.27;;;;;;;9.99;100.00;96315.91;5020598;28;20076;-75
2022/11/07 07:35:45;;;;;;;8.00;3.77;;;;;;;10.18;100.00;96310.47;5015263;28;20040;-75
2022/11/07 07:38:11;;;;;;;6.53;3.20;;;;;;;10.68;100.00;96303.69;5014954;28;20476;-75
2022/11/07 07:40:37;;;;;;;6.63;3.03;;;;;;;11.46;100.00;96290.25;5014519;28;20485;-75
2022/11/07 07:43:02;;;;;;;8.47;3.60;;;;;;;11.69;100.00;96293.88;5013924;28;20029;-75
2022/11/07 07:45:28;;;;;;;5.83;2.90;;;;;;;12.22;100.00;96292.53;5016650;28;20098;-75
2022/11/07 07:48:00;;;;;;;6.17;2.80;;;;;;;12.77;100.00;96284.78;5016841;28;20120;-75
2022/11/07 07:50:28;;;;;;;6.17;1.67;;;;;;;13.06;100.00;96284.16;5017810;28;20078;-75
2022/11/07 07:52:57;;;;;;;4.03;1.97;;;;;;;13.24;100.00;96279.44;5018251;28;20078;-75
2022/11/07 07:55:23;;;;;;;5.40;2.17;;;;;;;13.50;100.00;96286.22;5015065;28;20029;-75
2022/11/07 07:57:54;;;;;;;4.33;1.70;;;;;;;13.62;100.00;96284.84;5013414;28;20045;-75
2022/11/07 08:00:20;;;;;;;3.20;1.23;;;;;;;13.29;100.00;96290.34;5013266;28;20037;-76
2022/11/07 08:02:46;;;;;;;5.20;1.30;;;;;;;13.26;100.00;96295.97;5032706;28;20418;-75
2022/11/07 08:05:13;;;;;;;2.75;1.00;;;;;;;12.88;100.00;96301.09;5020247;28;20503;-75
2022/11/07 08:07:49;;;;;;;4.40;1.38;;;;;;;12.73;100.00;96300.16;5022334;28;20116;-75
2022/11/07 08:10:17;;;;;;;3.92;1.30;;;;;;;12.42;100.00;96300.91;5015804;28;20042;-75
2022/11/07 08:12:47;;;;;;;4.03;1.20;;;;;;;12.41;100.00;96301.09;5015741;28;20041;-75
2022/11/07 08:15:14;;;;;;;4.93;1.30;;;;;;;12.41;100.00;96307.19;5021825;28;20080;-75
2022/11/07 08:17:40;;;;;;;4.93;1.67;;;;;;;12.23;100.00;96298.63;5018910;28;20073;-76
2022/11/07 08:20:08;;;;;;;4.27;1.10;;;;;;;12.40;100.00;96309.97;5023427;28;20068;-75
2022/11/07 08:22:35;;;;;;;4.45;1.83;;;;;;;12.26;100.00;96304.41;5017183;28;20064;-75
2022/11/07 08:25:01;;;;;;;2.45;1.17;;;;;;;12.48;100.00;96302.88;5018510;28;20096;-75
2022/11/07 08:27:27;;;;;;;2.28;1.00;;;;;;;12.74;100.00;96300.00;5016971;28;20151;-75
2022/11/07 08:29:52;;;;;;;4.03;1.37;;;;;;;12.95;100.00;96307.31;5021479;28;20116;-75
2022/11/07 08:32:18;;;;;;;5.65;1.50;;;;;;;12.89;100.00;96310.63;5017447;28;20844;-76
2022/11/07 08:34:44;;;;;;;4.25;1.33;;;;;;;12.83;100.00;96311.31;5022934;28;20038;-75
2022/11/07 08:37:09;;;;;;;5.70;1.17;;;;;;;12.60;100.00;96313.88;5005283;28;20056;-75
2022/11/07 08:39:35;;;;;;;8.70;4.75;;;;;;;12.88;100.00;96314.28;5005415;28;20065;-75
2022/11/07 08:42:00;;;;;;;4.13;1.45;;;;;;;12.70;100.00;96313.69;5020640;28;20041;-75
2022/11/07 08:44:26;;;;;;;2.38;1.10;;;;;;;12.96;100.00;96318.69;5017138;28;20026;-75
2022/11/07 08:46:52;;;;;;;3.90;1.30;;;;;;;12.90;100.00;96316.72;5020006;28;20022;-75
2022/11/07 08:49:17;;;;;;;5.70;1.38;;;;;;;12.85;100.00;96311.97;5017061;28;20044;-75
2022/11/07 08:51:43;;;;;;;6.20;1.10;;;;;;;12.73;100.00;96318.63;5018917;28;20423;-75
2022/11/07 08:54:11;;;;;;;4.70;1.70;;;;;;;12.74;100.00;96315.81;5013129;28;20490;-75
2022/11/07 08:56:36;;;;;;;4.30;1.30;;;;;;;12.56;100.00;96314.38;5019339;28;20065;-75
2022/11/07 08:59:02;;;;;;;4.65;1.40;;;;;;;12.83;100.00;96324.50;5022070;28;20560;-75
2022/11/07 09:01:28;;;;;;;4.25;1.33;;;;;;;12.82;100.00;96328.16;5018580;28;20065;-75
2022/11/07 09:03:53;;;;;;;3.72;1.17;;;;;;;13.08;100.00;96329.72;5018920;28;20144;-75
2022/11/07 09:06:19;;;;;;;7.35;1.52;;;;;;;13.12;100.00;96329.19;5018247;28;20065;-75
2022/11/07 09:08:45;;;;;;;4.20;2.00;;;;;;;12.95;100.00;96327.63;5020478;28;20132;-75
2022/11/07 09:11:11;;;;;;;4.95;1.10;;;;;;;12.80;100.00;96322.22;5021203;28;20151;-74
2022/11/07 09:13:37;;;;;;;5.10;1.60;;;;;;;12.72;100.00;96324.91;5019833;28;20033;-75
2022/11/07 09:16:04;;;;;;;5.33;2.03;;;;;;;12.67;100.00;96335.13;5018423;28;20109;-75
2022/11/07 09:18:30;;;;;;;2.95;1.30;;;;;;;12.35;100.00;96328.94;5019674;28;20033;-75
2022/11/07 09:20:57;;;;;;;3.55;1.20;;;;;;;12.26;100.00;96335.22;5021121;28;20037;-75
2022/11/07 09:23:24;;;;;;;2.97;1.40;;;;;;;12.35;100.00;96334.22;5021634;28;20706;-75
2022/11/07 09:25:49;;;;;;;4.03;1.50;;;;;;;12.28;100.00;96333.25;5020686;28;20029;-75
2022/11/07 09:28:15;;;;;;;6.43;1.23;;;;;;;12.20;100.00;96333.25;4999651;28;20030;-75
2022/11/07 09:30:41;;;;;;;4.23;1.30;;;;;;;12.35;100.00;96339.50;5034696;28;20045;-75
2022/11/07 09:33:07;;;;;;;3.17;1.10;;;;;;;12.60;100.00;96336.78;5017062;28;20033;-75
2022/11/07 09:35:32;;;;;;;5.80;1.50;;;;;;;12.64;100.00;96338.94;5017452;28;20034;-75
2022/11/07 09:37:58;;;;;;;5.77;2.20;;;;;;;12.84;100.00;96334.06;5030681;28;20388;-75
2022/11/07 09:40:48;;;;;;;7.30;3.50;;;;;;;12.76;100.00;96351.75;5018067;28;20038;-75
2022/11/07 09:43:41;;;;;;;4.30;1.52;;;;;;;12.71;100.00;96349.66;5013618;28;20081;-75
2022/11/07 09:46:44;;;;;;;4.93;1.13;;;;;;;12.60;100.00;96342.06;5003107;28;20037;-75
2022/11/07 09:49:16;;;;;;;6.40;1.48;;;;;;;12.47;100.00;96346.06;5014012;28;20045;-75
2022/11/07 09:51:48;;;;;;;6.20;1.47;;;;;;;12.32;100.00;96345.09;5018955;28;20040;-75
2022/11/07 09:54:23;;;;;;;5.07;1.40;;;;;;;12.28;100.00;96349.06;5019627;28;20037;-75
2022/11/07 09:56:50;;;;;;;5.23;1.37;;;;;;;12.79;100.00;96346.97;5014791;28;20503;-76
2022/11/07 09:59:31;;;;;;;6.83;1.43;;;;;;;13.44;100.00;96338.75;5017653;28;20029;-76
2022/11/07 10:01:57;;;;;;;5.67;1.63;;;;;;;13.34;100.00;96335.50;5018058;28;21326;-74
2022/11/07 10:04:23;;;;;;;5.85;1.52;;;;;;;13.24;100.00;96345.47;5019180;28;20030;-75
2022/11/07 10:06:55;;;;;;;5.67;1.43;;;;;;;13.19;100.00;96340.69;5014943;28;20029;-75
2022/11/07 10:09:30;;;;;;;7.07;1.50;;;;;;;13.21;100.00;96346.63;5017263;28;20033;-75
2022/11/07 10:11:56;;;;;;;5.73;1.20;;;;;;;13.57;100.00;96342.66;5032123;28;20160;-75
2022/11/07 10:14:50;;;;;;;6.07;1.30;;;;;;;14.03;100.00;96334.72;5031520;28;21003;-75
2022/11/07 10:17:44;;;;;;;6.78;1.42;;;;;;;14.06;100.00;96339.66;5012878;28;20044;-75
2022/11/07 10:20:34;;;;;;;7.55;1.35;;;;;;;13.89;100.00;96344.25;5015735;28;20025;-75
2022/11/07 10:23:14;;;;;;;7.43;1.30;;;;;;;14.17;100.00;96331.28;5033467;28;20030;-76
2022/11/07 10:25:59;;;;;;;6.03;1.25;;;;;;;14.48;100.00;96325.84;5015066;28;20037;-75
2022/11/07 10:28:28;;;;;;;6.55;1.45;;;;;;;15.13;100.00;96334.91;5017503;28;20037;-75
2022/11/07 10:30:57;;;;;;;4.10;1.30;;;;;;;14.99;100.00;96325.16;5019275;28;20123;-75
2022/11/07 10:33:48;;;;;;;6.78;1.20;;;;;;;14.51;100.00;96324.72;5016749;28;20567;-75
2022/11/07 10:36:21;;;;;;;4.13;1.35;;;;;;;13.80;100.00;96324.97;5008314;28;20029;-75
2022/11/07 10:38:46;;;;;;;4.13;1.35;;;;;;;13.70;100.00;96319.13;5009134;28;20053;-75
2022/11/07 10:41:16;;;;;;;3.47;1.20;;;;;;;13.66;100.00;96315.19;5009383;28;20119;-75
2022/11/07 10:43:45;;;;;;;6.90;1.27;;;;;;;13.94;100.00;96315.44;5008430;28;20121;-76
2022/11/07 10:46:17;;;;;;;3.42;1.02;;;;;;;14.36;100.00;96322.03;5007793;28;20415;-75
2022/11/07 10:48:57;;;;;;;5.50;1.15;;;;;;;14.40;100.00;96318.00;5007593;28;20049;-75
2022/11/07 10:51:43;;;;;;;7.57;1.38;;;;;;;14.57;100.00;96316.03;5008859;28;20036;-75
2022/11/07 10:54:26;;;;;;;3.83;1.10;;;;;;;15.09;100.00;96312.47;5006358;28;20091;-76
2022/11/07 10:57:10;;;;;;;3.75;0.98;;;;;;;14.35;100.00;96318.56;5008178;28;20041;-75
2022/11/07 10:59:44;;;;;;;7.63;2.47;;;;;;;14.17;100.00;96304.03;5009010;28;20136;-76
2022/11/07 11:02:23;;;;;;;4.75;1.20;;;;;;;14.52;100.00;96318.41;5010105;28;20148;-75
2022/11/07 11:05:01;;;;;;;5.22;1.92;;;;;;;14.44;100.00;96306.06;5014459;28;20049;-75
2022/11/07 11:07:38;;;;;;;5.88;1.23;;;;;;;14.35;100.00;96302.69;5018815;28;20407;-76
2022/11/07 11:10:37;;;;;;;7.03;1.40;;;;;;;14.15;100.00;96298.91;5034050;28;20025;-75
2022/11/07 11:13:03;;;;;;;5.53;1.20;;;;;;;14.12;100.00;96301.94;5030940;28;20098;-75
2022/11/07 11:15:28;;;;;;;5.45;1.48;;;;;;;14.10;100.00;96298.63;5015278;28;20045;-76
2022/11/07 11:18:04;;;;;;;5.30;1.20;;;;;;;13.93;100.00;96294.50;5030672;28;20034;-76
2022/11/07 11:20:37;;;;;;;4.05;1.20;;;;;;;13.92;100.00;96304.25;5014732;28;20036;-76
2022/11/07 11:23:12;;;;;;;9.65;1.30;;;;;;;14.05;100.00;96300.97;5030469;28;20128;-76
2022/11/07 11:25:49;;;;;;;7.75;1.27;;;;;;;14.12;100.00;96296.63;5014768;28;20052;-75
2022/11/07 11:28:50;;;;;;;4.80;1.30;;;;;;;14.07;100.00;96301.63;5017111;28;20038;-75
2022/11/07 11:31:26;;;;;;;6.97;1.30;;;;;;;14.05;100.00;96301.81;5014875;28;20042;-75
2022/11/07 11:34:18;;;;;;;4.18;0.77;;;;;;;14.04;100.00;96299.34;5018871;28;20108;-75
2022/11/07 11:36:52;;;;;;;3.58;1.08;;;;;;;14.62;100.00;96295.16;5011165;28;20041;-75
2022/11/07 11:39:43;;;;;;;8.98;2.10;;;;;;;14.90;100.00;96284.72;5015701;28;20022;-76
2022/11/07 11:42:29;;;;;;;4.88;1.75;;;;;;;14.72;100.00;96285.13;5039536;28;20026;-76
2022/11/07 11:44:58;;;;;;;6.20;1.52;;;;;;;14.52;100.00;96286.66;5025681;28;20112;-75
2022/11/07 11:47:29;;;;;;;5.32;1.65;;;;;;;14.28;100.00;96285.06;5023007;28;20156;-76